Portada
METAR-TAF:

METAR-TAF

Aeroports :

Malé, Maldives

latitud: 04-12N, longitud: 073-32E, altitud: 2 m

Observació

L'informe es va fer fa 55 minuts, a les 14:00 UTC
Vent 14 kt del Est/Nord-Est
Temperatura 29°C
Humitat 74%
Pressió 1009 hPa
Visibilitat 10 km o més
Escasses núvols a una alçada de 1800 ft, Cumulus congestus.
Cel ennuvolat a una alçada de 27000 ft

METAR: VRMM 231400Z 06014KT 9999 FEW018TCU BKN270 29/24 Q1009 NOSIG

Hora: 19:55 (14:55 UTC)

Pronòstic

L'informe es va fer fa 3 hores i 55 minuts, a les 11:00 UTC
Pronòstic vàlid del 23 a les 12 UTC al 24 a les 18 UTC
Vent 12 kt del Est/Nord-Est
Visibilitat 10 km o més
Escasses núvols a una alçada de 1800 ft
Temporalment
l' 23 a les 12 UTC al 23 a les 18 UTC
Escasses núvols a una alçada de 1900 ft, Cumulonimbus.

TAF: VRMM 231100Z 2312/2418 07012KT 9999 FEW018 TEMPO 2312/2318 FEW019CB

Observacions i pronòstics meteorològics de més de 4000 aeroports (METAR i TAF).

Les estacions disponibles són els punts grocs i vermells al mapa.

Posi el ratolí al punt desitjat per veure el nom de l'estació.

Feu clic per veure les observacions i els pronòstics meteorològics.

Per canviar el mapa: feu clic els botons verds amb una creu de color negre per apropar; al botó verd amb un guió per allunyar la imatge; o en les fletxes verdes per a mapes adjacents.


METAR-TAF: